createdAt,value
2023-04-16T00:02:19.227Z,100496.84
2023-04-16T00:04:49.462Z,100486.09
2023-04-16T00:07:22.066Z,100490.22
2023-04-16T00:09:52.008Z,100483.13
2023-04-16T00:12:22.178Z,100485.38
2023-04-16T00:14:52.268Z,100492.84
2023-04-16T00:17:22.300Z,100485.50
2023-04-16T00:19:52.276Z,100495.88
2023-04-16T00:22:24.889Z,100500.78
2023-04-16T00:24:55.003Z,100496.91
2023-04-16T00:27:25.000Z,100497.16
2023-04-16T00:29:55.106Z,100497.75
2023-04-16T00:32:25.091Z,100497.56
2023-04-16T00:34:55.180Z,100498.47
2023-04-16T00:37:27.780Z,100503.00
2023-04-16T00:39:57.792Z,100498.31
2023-04-16T00:42:27.787Z,100498.78
2023-04-16T00:44:58.591Z,100491.81
2023-04-16T00:47:29.071Z,100503.75
2023-04-16T00:49:59.714Z,100513.44
2023-04-16T00:52:33.229Z,100512.69
2023-04-16T00:55:04.111Z,100500.91
2023-04-16T00:57:34.106Z,100514.00
2023-04-16T01:00:04.250Z,100509.88
2023-04-16T01:02:34.459Z,100498.22
2023-04-16T01:05:05.255Z,100502.59
2023-04-16T01:07:37.948Z,100507.34
2023-04-16T01:10:09.000Z,100505.34
2023-04-16T01:12:38.977Z,100504.09
2023-04-16T01:15:11.513Z,100505.28
2023-04-16T01:17:42.000Z,100505.13
2023-04-16T01:20:12.869Z,100503.94
2023-04-16T01:22:45.741Z,100501.25
2023-04-16T01:25:17.876Z,100516.03
2023-04-16T01:27:47.880Z,100511.94
2023-04-16T01:30:18.029Z,100519.88
2023-04-16T01:33:10.048Z,100512.59
2023-04-16T01:35:41.128Z,100519.03
2023-04-16T01:38:13.977Z,100520.28
2023-04-16T01:40:44.211Z,100520.91
2023-04-16T01:43:15.317Z,100525.41
2023-04-16T01:45:45.781Z,100530.06
2023-04-16T01:48:15.866Z,100520.22
2023-04-16T01:50:45.855Z,100527.28
2023-04-16T01:53:18.379Z,100526.94
2023-04-16T01:55:48.403Z,100531.66
2023-04-16T01:58:18.585Z,100529.09
2023-04-16T02:00:48.640Z,100524.72
2023-04-16T02:03:20.124Z,100522.28
2023-04-16T02:05:50.639Z,100521.03
2023-04-16T02:08:23.491Z,100527.47
2023-04-16T02:10:53.567Z,100522.03
2023-04-16T02:13:23.506Z,100521.06
2023-04-16T02:15:53.998Z,100520.03
2023-04-16T02:18:38.837Z,100530.81
2023-04-16T02:21:09.452Z,100524.66
2023-04-16T02:23:42.655Z,100527.66
2023-04-16T02:26:13.801Z,100528.41
2023-04-16T02:28:44.455Z,100543.53
2023-04-16T02:31:18.120Z,100543.28
2023-04-16T02:33:48.431Z,100539.72
2023-04-16T02:36:18.427Z,100542.69
2023-04-16T02:38:51.009Z,100534.50
2023-04-16T02:41:21.199Z,100543.09
2023-04-16T02:43:51.407Z,100541.78
2023-04-16T02:46:22.315Z,100544.28
2023-04-16T02:48:53.549Z,100541.75
2023-04-16T02:51:23.712Z,100548.94
2023-04-16T02:53:56.277Z,100545.22
2023-04-16T02:56:26.425Z,100546.09
2023-04-16T02:58:56.363Z,100545.50
2023-04-16T03:01:26.433Z,100540.69
2023-04-16T03:03:56.504Z,100544.34
2023-04-16T03:06:27.234Z,100548.50
2023-04-16T03:08:59.948Z,100544.28
2023-04-16T03:11:30.054Z,100545.94
2023-04-16T03:13:59.993Z,100546.72
2023-04-16T03:16:30.597Z,100548.94
2023-04-16T03:19:00.928Z,100550.72
2023-04-16T03:21:31.374Z,100546.28
2023-04-16T03:24:04.538Z,100556.78
2023-04-16T03:26:34.461Z,100554.94
2023-04-16T03:29:04.909Z,100549.09
2023-04-16T03:31:35.881Z,100540.25
2023-04-16T03:34:05.848Z,100560.56
2023-04-16T03:36:35.805Z,100560.19
2023-04-16T03:39:08.603Z,100561.09
2023-04-16T03:41:39.808Z,100564.59
2023-04-16T03:44:09.743Z,100558.13
2023-04-16T03:46:39.747Z,100566.94
2023-04-16T03:49:10.219Z,100563.63
2023-04-16T03:51:40.250Z,100570.59
2023-04-16T03:54:12.893Z,100563.19
2023-04-16T03:56:44.370Z,100567.16
2023-04-16T03:59:14.302Z,100564.88
2023-04-16T04:01:44.321Z,100560.44
2023-04-16T04:04:15.341Z,100565.97
2023-04-16T04:06:45.431Z,100557.88
2023-04-16T04:09:18.423Z,100567.41
2023-04-16T04:11:48.661Z,100568.59
2023-04-16T04:14:18.667Z,100567.91
2023-04-16T04:16:48.609Z,100565.84
2023-04-16T04:19:18.627Z,100571.19
2023-04-16T04:21:48.918Z,100580.84
2023-04-16T04:24:23.056Z,100576.44
2023-04-16T04:26:53.067Z,100574.88
2023-04-16T04:29:23.130Z,100579.59
2023-04-16T04:31:53.664Z,100578.63
2023-04-16T04:34:25.990Z,100584.78
2023-04-16T04:36:58.965Z,100580.22
2023-04-16T04:39:32.440Z,100588.00
2023-04-16T04:42:03.348Z,100591.22
2023-04-16T04:44:33.427Z,100592.88
2023-04-16T04:47:03.539Z,100597.13
2023-04-16T04:49:33.802Z,100598.06
2023-04-16T04:52:04.226Z,100607.91
2023-04-16T04:54:41.580Z,100608.97
2023-04-16T04:57:11.585Z,100609.50
2023-04-16T04:59:42.726Z,100607.41
2023-04-16T05:02:13.903Z,100615.75
2023-04-16T05:04:43.926Z,100617.78
2023-04-16T05:07:13.920Z,100622.59
2023-04-16T05:09:46.448Z,100623.59
2023-04-16T05:12:16.679Z,100624.25
2023-04-16T05:14:46.635Z,100633.81
2023-04-16T05:17:17.217Z,100628.44
2023-04-16T05:19:47.201Z,100633.53
2023-04-16T05:22:19.053Z,100638.75
2023-04-16T05:24:51.622Z,100650.41
2023-04-16T05:27:21.587Z,100639.38
2023-04-16T05:29:51.543Z,100636.06
2023-04-16T05:32:21.672Z,100651.91
2023-04-16T05:34:51.642Z,100647.03
2023-04-16T05:37:21.547Z,100652.84
2023-04-16T05:39:54.142Z,100649.91
2023-04-16T05:42:24.084Z,100657.31
2023-04-16T05:44:54.957Z,100665.03
2023-04-16T05:47:24.999Z,100658.06
2023-04-16T05:49:54.943Z,100663.25
2023-04-16T05:52:24.908Z,100664.69
2023-04-16T05:54:58.196Z,100661.19
2023-04-16T05:57:28.167Z,100668.03
2023-04-16T05:59:58.113Z,100668.41
2023-04-16T06:02:28.324Z,100674.63
2023-04-16T06:04:58.328Z,100668.63
2023-04-16T06:07:31.156Z,100674.63
2023-04-16T06:10:03.745Z,100678.88
2023-04-16T06:12:33.886Z,100670.41
2023-04-16T06:15:04.078Z,100674.13
2023-04-16T06:17:34.090Z,100672.41
2023-04-16T06:20:04.112Z,100677.72
2023-04-16T06:22:34.154Z,100683.41
2023-04-16T06:25:07.021Z,100677.63
2023-04-16T06:27:37.337Z,100684.13
2023-04-16T06:30:09.060Z,100682.63
2023-04-16T06:32:39.105Z,100688.66
2023-04-16T06:35:10.201Z,100690.81
2023-04-16T06:37:40.184Z,100692.41
2023-04-16T06:40:13.989Z,100700.59
2023-04-16T06:42:45.519Z,100697.97
2023-04-16T06:45:17.257Z,100696.81
2023-04-16T06:47:48.263Z,100700.50
2023-04-16T06:50:18.397Z,100704.72
2023-04-16T06:52:48.654Z,100702.09
2023-04-16T06:55:21.407Z,100703.13
2023-04-16T06:57:51.359Z,100696.78
2023-04-16T07:00:22.072Z,100701.13
2023-04-16T07:02:52.380Z,100706.75
2023-04-16T07:05:22.500Z,100700.97
2023-04-16T07:07:52.479Z,100705.38
2023-04-16T07:10:25.133Z,100712.56
2023-04-16T07:12:55.203Z,100705.16
2023-04-16T07:15:25.233Z,100715.63
2023-04-16T07:17:55.273Z,100724.13
2023-04-16T07:20:25.488Z,100719.59
2023-04-16T07:22:55.792Z,100712.13
2023-04-16T07:25:28.503Z,100718.84
2023-04-16T07:27:58.471Z,100718.84
2023-04-16T07:30:32.926Z,100725.38
2023-04-16T07:33:03.235Z,100724.78
2023-04-16T07:35:33.669Z,100728.53
2023-04-16T07:38:03.680Z,100728.53
2023-04-16T07:40:36.562Z,100732.03
2023-04-16T07:43:06.914Z,100732.72
2023-04-16T07:45:37.003Z,100726.53
2023-04-16T07:48:07.319Z,100732.09
2023-04-16T07:50:37.388Z,100723.84
2023-04-16T07:53:07.936Z,100731.44
2023-04-16T07:55:40.595Z,100734.72
2023-04-16T07:58:10.948Z,100731.94
2023-04-16T08:00:42.225Z,100734.03
2023-04-16T08:03:12.549Z,100739.31
2023-04-16T08:05:42.872Z,100745.56
2023-04-16T08:08:12.844Z,100744.38
2023-04-16T08:10:45.360Z,100746.78
2023-04-16T08:13:15.645Z,100740.88
2023-04-16T08:15:45.671Z,100746.81
2023-04-16T08:18:15.943Z,100750.00
2023-04-16T08:20:45.991Z,100759.13
2023-04-16T08:23:15.974Z,100758.63
2023-04-16T08:25:48.450Z,100765.91
2023-04-16T08:28:19.229Z,100772.66
2023-04-16T08:30:49.306Z,100769.31
2023-04-16T08:33:19.302Z,100787.53
2023-04-16T08:35:49.308Z,100774.56
2023-04-16T08:38:19.239Z,100775.88
2023-04-16T08:40:51.896Z,100781.88
2023-04-16T08:43:24.265Z,100780.03
2023-04-16T08:45:59.358Z,100788.81
2023-04-16T08:48:35.652Z,100786.09
2023-04-16T08:51:06.436Z,100785.56
2023-04-16T08:53:46.219Z,100782.56
2023-04-16T08:56:23.885Z,100783.94
2023-04-16T08:58:58.608Z,100793.03
2023-04-16T09:01:29.597Z,100794.56
2023-04-16T09:04:01.732Z,100788.63
2023-04-16T09:06:32.080Z,100786.72
2023-04-16T09:09:04.902Z,100790.84
2023-04-16T09:11:37.717Z,100787.28
2023-04-16T09:14:12.367Z,100802.47
2023-04-16T09:16:43.734Z,100799.56
2023-04-16T09:19:13.869Z,100797.78
2023-04-16T09:21:45.748Z,100793.28
2023-04-16T09:24:16.038Z,100809.88
2023-04-16T09:26:49.549Z,100800.75
2023-04-16T09:29:37.049Z,100801.03
2023-04-16T09:32:08.958Z,100807.19
2023-04-16T09:34:57.842Z,100804.63
2023-04-16T09:37:29.876Z,100806.84
2023-04-16T09:40:01.734Z,100805.88
2023-04-16T09:42:37.104Z,100812.44
2023-04-16T09:45:07.771Z,100815.97
2023-04-16T09:47:45.112Z,100819.78
2023-04-16T09:50:19.398Z,100810.16
2023-04-16T09:52:53.359Z,100818.47
2023-04-16T09:55:26.206Z,100821.53
2023-04-16T09:58:04.421Z,100820.84
2023-04-16T10:00:34.464Z,100825.22
2023-04-16T10:03:08.499Z,100815.31
2023-04-16T10:05:38.693Z,100817.69
2023-04-16T10:08:15.768Z,100831.19
2023-04-16T10:10:45.954Z,100832.41
2023-04-16T10:13:19.426Z,100833.75
2023-04-16T10:15:50.254Z,100826.16
2023-04-16T10:18:21.669Z,100830.22
2023-04-16T10:20:53.328Z,100832.19
2023-04-16T10:23:24.087Z,100832.88
2023-04-16T10:25:57.716Z,100843.28
2023-04-16T10:28:31.241Z,100845.81
2023-04-16T10:31:02.724Z,100846.16
2023-04-16T10:33:36.739Z,100841.97
2023-04-16T10:36:15.246Z,100841.81
2023-04-16T10:38:49.634Z,100848.88
2023-04-16T10:41:19.637Z,100847.75
2023-04-16T10:43:53.566Z,100849.56
2023-04-16T10:46:40.824Z,100852.00
2023-04-16T10:49:19.306Z,100848.75
2023-04-16T10:51:57.706Z,100852.44
2023-04-16T10:54:29.711Z,100853.94
2023-04-16T10:57:03.747Z,100851.28
2023-04-16T10:59:40.065Z,100852.97
2023-04-16T11:02:12.546Z,100856.53
2023-04-16T11:04:45.609Z,100858.91
2023-04-16T11:07:21.795Z,100856.22
2023-04-16T11:10:00.513Z,100855.38
2023-04-16T11:12:38.280Z,100852.66
2023-04-16T11:15:13.560Z,100861.88
2023-04-16T11:17:48.201Z,100856.75
2023-04-16T11:20:22.182Z,100855.91
2023-04-16T11:22:52.881Z,100856.50
2023-04-16T11:25:24.229Z,100859.91
2023-04-16T11:27:55.139Z,100863.97
2023-04-16T11:30:35.420Z,100861.63
2023-04-16T11:33:05.962Z,100864.25
2023-04-16T11:35:36.319Z,100864.66
2023-04-16T11:38:07.309Z,100866.56
2023-04-16T11:40:37.980Z,100867.31
2023-04-16T11:43:16.712Z,100863.63
2023-04-16T11:46:10.319Z,100872.09
2023-04-16T11:48:58.004Z,100867.88
2023-04-16T11:51:28.022Z,100866.16
2023-04-16T11:53:58.899Z,100872.91
2023-04-16T11:56:30.331Z,100869.66
2023-04-16T11:59:13.778Z,100874.81
2023-04-16T12:01:50.273Z,100876.00
2023-04-16T12:04:24.606Z,100875.16
2023-04-16T12:07:11.248Z,100865.84
2023-04-16T12:09:43.573Z,100868.03
2023-04-16T12:12:31.590Z,100870.28
2023-04-16T12:15:04.111Z,100873.75
2023-04-16T12:17:39.189Z,100877.47
2023-04-16T12:20:13.813Z,100876.47
2023-04-16T12:22:48.049Z,100874.91
2023-04-16T12:25:20.814Z,100872.94
2023-04-16T12:27:53.979Z,100876.63
2023-04-16T12:30:26.386Z,100874.28
2023-04-16T12:33:20.974Z,100877.28
2023-04-16T12:35:51.142Z,100880.75
2023-04-16T12:38:23.608Z,100878.31
2023-04-16T12:40:57.156Z,100871.00
2023-04-16T12:43:28.640Z,100880.03
2023-04-16T12:45:58.651Z,100881.41
2023-04-16T12:48:32.524Z,100869.66
2023-04-16T12:51:02.823Z,100872.22
2023-04-16T12:53:32.833Z,100880.78
2023-04-16T12:56:02.871Z,100884.47
2023-04-16T12:58:32.816Z,100877.63
2023-04-16T13:01:02.839Z,100881.88
2023-04-16T13:03:36.460Z,100873.81
2023-04-16T13:06:07.313Z,100877.69
2023-04-16T13:08:37.566Z,100876.38
2023-04-16T13:11:07.654Z,100872.00
2023-04-16T13:13:38.088Z,100873.09
2023-04-16T13:16:09.595Z,100881.53
2023-04-16T13:18:45.508Z,100882.31
2023-04-16T13:21:15.574Z,100882.72
2023-04-16T13:23:45.678Z,100879.94
2023-04-16T13:26:16.568Z,100884.34
2023-04-16T13:28:46.596Z,100872.00
2023-04-16T13:31:20.165Z,100874.91
2023-04-16T13:33:53.671Z,100874.16
2023-04-16T13:36:25.074Z,100881.78
2023-04-16T13:38:57.026Z,100873.72
2023-04-16T13:41:27.636Z,100876.66
2023-04-16T13:43:57.576Z,100877.53
2023-04-16T13:46:36.569Z,100891.03
2023-04-16T13:49:09.958Z,100880.75
2023-04-16T13:51:40.234Z,100879.31
2023-04-16T13:54:10.155Z,100884.22
2023-04-16T13:56:40.321Z,100881.22
2023-04-16T13:59:11.131Z,100886.72
2023-04-16T14:01:41.437Z,100879.94
2023-04-16T14:04:14.046Z,100875.59
2023-04-16T14:06:44.048Z,100877.38
2023-04-16T14:09:14.030Z,100881.22
2023-04-16T14:11:44.379Z,100882.47
2023-04-16T14:14:14.450Z,100877.94
2023-04-16T14:16:44.546Z,100875.00
2023-04-16T14:19:17.204Z,100875.34
2023-04-16T14:21:47.220Z,100879.75
2023-04-16T14:24:17.176Z,100883.72
2023-04-16T14:26:47.406Z,100874.84
2023-04-16T14:29:17.431Z,100874.06
2023-04-16T14:31:47.364Z,100872.22
2023-04-16T14:34:20.051Z,100874.63
2023-04-16T14:36:52.029Z,100876.47
2023-04-16T14:39:22.187Z,100879.16
2023-04-16T14:41:52.141Z,100874.81
2023-04-16T14:44:22.884Z,100878.84
2023-04-16T14:46:52.864Z,100873.78
2023-04-16T14:49:25.380Z,100877.31
2023-04-16T14:51:56.779Z,100882.78
2023-04-16T14:54:26.852Z,100872.00
2023-04-16T14:56:57.005Z,100879.03
2023-04-16T14:59:26.958Z,100881.75
2023-04-16T15:01:58.577Z,100880.81
2023-04-16T15:04:32.528Z,100879.41
2023-04-16T15:07:02.703Z,100888.69
2023-04-16T15:09:32.658Z,100888.53
2023-04-16T15:12:03.027Z,100882.91
2023-04-16T15:14:33.004Z,100882.88
2023-04-16T15:17:03.271Z,100885.94
2023-04-16T15:19:35.982Z,100880.53
2023-04-16T15:22:06.045Z,100879.94
2023-04-16T15:24:36.137Z,100888.13
2023-04-16T15:27:11.870Z,100891.56
2023-04-16T15:29:42.041Z,100885.81
2023-04-16T15:32:12.024Z,100888.63
2023-04-16T15:34:44.655Z,100889.41
2023-04-16T15:37:14.756Z,100887.13
2023-04-16T15:39:44.789Z,100894.38
2023-04-16T15:42:14.956Z,100895.09
2023-04-16T15:44:45.007Z,100897.09
2023-04-16T15:47:15.088Z,100890.63
2023-04-16T15:49:47.710Z,100903.56
2023-04-16T15:52:20.042Z,100900.34
2023-04-16T15:54:50.096Z,100900.00
2023-04-16T15:57:20.057Z,100901.75
2023-04-16T16:00:05.355Z,100900.28
2023-04-16T16:02:38.486Z,100904.88
2023-04-16T16:05:13.560Z,100900.56
2023-04-16T16:07:44.037Z,100900.78
2023-04-16T16:10:14.886Z,100905.19
2023-04-16T16:12:44.877Z,100899.66
2023-04-16T16:15:15.392Z,100899.84
2023-04-16T16:17:45.430Z,100899.06
2023-04-16T16:20:18.118Z,100912.78
2023-04-16T16:22:48.508Z,100902.81
2023-04-16T16:25:18.457Z,100902.91
2023-04-16T16:27:49.448Z,100910.41
2023-04-16T16:30:19.525Z,100910.22
2023-04-16T16:32:49.594Z,100911.72
2023-04-16T16:35:22.636Z,100910.34
2023-04-16T16:37:55.575Z,100907.03
2023-04-16T16:40:25.888Z,100909.72
2023-04-16T16:42:55.989Z,100906.09
2023-04-16T16:45:26.315Z,100910.66
2023-04-16T16:47:56.840Z,100911.41
2023-04-16T16:50:29.797Z,100909.81
2023-04-16T16:53:01.197Z,100910.59
2023-04-16T16:55:31.343Z,100905.25
2023-04-16T16:58:01.378Z,100908.31
2023-04-16T17:00:31.450Z,100913.22
2023-04-16T17:03:01.689Z,100907.25
2023-04-16T17:05:34.528Z,100904.19
2023-04-16T17:08:04.486Z,100910.03
2023-04-16T17:10:34.571Z,100910.34
2023-04-16T17:13:04.525Z,100908.38
2023-04-16T17:15:34.575Z,100905.47
2023-04-16T17:18:04.528Z,100906.97
2023-04-16T17:20:37.219Z,100912.84
2023-04-16T17:23:07.252Z,100908.59
2023-04-16T17:25:37.593Z,100914.69
2023-04-16T17:28:08.082Z,100917.41
2023-04-16T17:30:38.033Z,100918.31
2023-04-16T17:33:08.055Z,100916.06
2023-04-16T17:35:42.381Z,100923.47
2023-04-16T17:38:12.413Z,100927.66
2023-04-16T17:40:42.415Z,100923.78
2023-04-16T17:43:12.438Z,100930.13
2023-04-16T17:45:42.452Z,100928.66
2023-04-16T17:48:12.516Z,100938.22
2023-04-16T17:50:45.305Z,100936.16
2023-04-16T17:53:15.818Z,100944.63
2023-04-16T17:55:55.180Z,100943.84
2023-04-16T17:58:26.833Z,100940.69
2023-04-16T18:00:56.787Z,100949.09
2023-04-16T18:03:27.375Z,100957.50
2023-04-16T18:06:00.167Z,100955.81
2023-04-16T18:08:30.351Z,100952.78
2023-04-16T18:11:00.451Z,100957.13
2023-04-16T18:13:30.550Z,100960.91
2023-04-16T18:16:02.553Z,100960.75
2023-04-16T18:18:33.073Z,100966.94
2023-04-16T18:21:05.652Z,100958.44
2023-04-16T18:23:35.820Z,100954.06
2023-04-16T18:26:08.339Z,100962.06
2023-04-16T18:28:39.418Z,100966.84
2023-04-16T18:31:09.552Z,100965.00
2023-04-16T18:33:55.720Z,100963.94
2023-04-16T18:36:30.321Z,100969.00
2023-04-16T18:39:02.527Z,100969.09
2023-04-16T18:41:33.585Z,100971.00
2023-04-16T18:44:03.823Z,100972.09
2023-04-16T18:46:33.961Z,100969.16
2023-04-16T18:49:04.043Z,100967.38
2023-04-16T18:51:36.619Z,100970.63
2023-04-16T18:54:06.812Z,100974.88
2023-04-16T18:56:36.928Z,100974.56
2023-04-16T18:59:06.959Z,100977.00
2023-04-16T19:01:36.972Z,100977.53
2023-04-16T19:04:07.366Z,100978.25
2023-04-16T19:06:40.318Z,100971.00
2023-04-16T19:09:11.572Z,100977.53
2023-04-16T19:11:41.857Z,100978.16
2023-04-16T19:14:13.547Z,100974.16
2023-04-16T19:16:43.802Z,100981.00
2023-04-16T19:19:14.018Z,100991.31
2023-04-16T19:21:46.619Z,100989.38
2023-04-16T19:24:17.061Z,100993.69
2023-04-16T19:26:47.052Z,100990.22
2023-04-16T19:29:18.089Z,100994.22
2023-04-16T19:31:49.156Z,100985.19
2023-04-16T19:34:19.183Z,100988.50
2023-04-16T19:36:51.780Z,100991.13
2023-04-16T19:39:21.990Z,100994.91
2023-04-16T19:41:52.139Z,100996.84
2023-04-16T19:44:23.309Z,101002.19
2023-04-16T19:46:53.356Z,100992.41
2023-04-16T19:49:25.381Z,101001.16
2023-04-16T19:51:57.927Z,101000.53
2023-04-16T19:54:28.898Z,101003.09
2023-04-16T19:56:58.957Z,101005.78
2023-04-16T19:59:29.127Z,101004.22
2023-04-16T20:01:59.465Z,100999.31
2023-04-16T20:04:32.768Z,101005.47
2023-04-16T20:07:05.774Z,100998.59
2023-04-16T20:09:35.952Z,101012.72
2023-04-16T20:12:06.170Z,101007.31
2023-04-16T20:14:36.260Z,101013.09
2023-04-16T20:17:10.366Z,101010.25
2023-04-16T20:19:40.914Z,101006.22
2023-04-16T20:22:14.936Z,101014.19
2023-04-16T20:24:47.819Z,101007.09
2023-04-16T20:27:19.621Z,101010.78
2023-04-16T20:29:50.032Z,101005.59
2023-04-16T20:32:20.205Z,101007.31
2023-04-16T20:34:50.439Z,101006.75
2023-04-16T20:37:23.373Z,101006.84
2023-04-16T20:39:56.561Z,100999.59
2023-04-16T20:42:27.876Z,100998.97
2023-04-16T20:45:01.003Z,100999.97
2023-04-16T20:47:31.441Z,100994.47
2023-04-16T20:50:01.930Z,100994.53
2023-04-16T20:52:34.955Z,101001.72
2023-04-16T20:55:05.185Z,100992.41
2023-04-16T20:57:35.630Z,100991.41
2023-04-16T21:00:10.789Z,100990.28
2023-04-16T21:02:41.473Z,100991.09
2023-04-16T21:05:14.269Z,100987.72
2023-04-16T21:07:49.900Z,100984.34
2023-04-16T21:10:23.825Z,100982.03
2023-04-16T21:12:54.321Z,100982.31
2023-04-16T21:15:24.842Z,100987.53
2023-04-16T21:17:55.233Z,100977.59
2023-04-16T21:20:30.528Z,100983.97
2023-04-16T21:23:03.840Z,100991.91
2023-04-16T21:25:33.997Z,100980.28
2023-04-16T21:28:04.349Z,100988.38
2023-04-16T21:30:37.243Z,100992.63
2023-04-16T21:33:12.077Z,100988.28
2023-04-16T21:35:57.859Z,100992.78
2023-04-16T21:38:37.024Z,100989.47
2023-04-16T21:41:09.753Z,100981.69
2023-04-16T21:43:43.157Z,100984.63
2023-04-16T21:46:26.657Z,100995.00
2023-04-16T21:48:57.036Z,100987.34
2023-04-16T21:51:29.591Z,100990.16
2023-04-16T21:54:02.191Z,100986.25
2023-04-16T21:56:32.163Z,100981.09
2023-04-16T21:59:02.138Z,100981.22
2023-04-16T22:01:32.208Z,100978.47
2023-04-16T22:04:02.311Z,100979.47
2023-04-16T22:06:32.357Z,100982.19
2023-04-16T22:09:06.829Z,100979.63
2023-04-16T22:11:36.868Z,100983.31
2023-04-16T22:14:08.457Z,100982.03
2023-04-16T22:16:38.820Z,100978.72
2023-04-16T22:19:08.872Z,100973.31
2023-04-16T22:21:39.003Z,100978.78
2023-04-16T22:24:14.451Z,100978.53
2023-04-16T22:26:44.424Z,100982.94
2023-04-16T22:29:14.386Z,100977.63
2023-04-16T22:31:44.431Z,100984.41
2023-04-16T22:34:14.387Z,100977.31
2023-04-16T22:36:44.325Z,100981.94
2023-04-16T22:39:16.966Z,100981.56
2023-04-16T22:41:46.952Z,100977.88
2023-04-16T22:44:17.036Z,100978.41
2023-04-16T22:46:47.625Z,100967.91
2023-04-16T22:49:17.584Z,100970.44
2023-04-16T22:51:47.651Z,100978.47
2023-04-16T22:54:20.268Z,100979.34
2023-04-16T22:56:50.325Z,100976.91
2023-04-16T22:59:20.214Z,100976.91
2023-04-16T23:01:50.184Z,100975.22
2023-04-16T23:04:20.331Z,100976.22
2023-04-16T23:06:50.571Z,100972.28
2023-04-16T23:09:23.360Z,100972.00
2023-04-16T23:11:53.404Z,100977.31
2023-04-16T23:14:23.861Z,100971.91
2023-04-16T23:16:53.769Z,100971.25
2023-04-16T23:19:23.744Z,100968.22
2023-04-16T23:21:53.764Z,100965.97
2023-04-16T23:24:26.611Z,100968.59
2023-04-16T23:26:56.556Z,100974.13
2023-04-16T23:29:26.657Z,100970.81
2023-04-16T23:31:58.464Z,100974.03
2023-04-16T23:34:28.558Z,100972.28
2023-04-16T23:36:58.537Z,100977.22
2023-04-16T23:39:31.244Z,100970.16
2023-04-16T23:42:01.408Z,100974.50
2023-04-16T23:44:31.463Z,100970.44
2023-04-16T23:47:01.603Z,100975.38
2023-04-16T23:49:31.603Z,100968.72
2023-04-16T23:52:01.550Z,100965.50
2023-04-16T23:54:34.165Z,100965.50
2023-04-16T23:57:04.334Z,100970.72
2023-04-16T23:59:34.315Z,100964.03
